createdAt,value
2022-11-05T00:01:50.123Z,2.65
2022-11-05T00:05:12.956Z,1.65
2022-11-05T00:08:35.835Z,2.50
2022-11-05T00:12:00.614Z,1.73
2022-11-05T00:15:23.814Z,1.98
2022-11-05T00:18:28.687Z,1.70
2022-11-05T00:21:52.966Z,2.42
2022-11-05T00:25:16.112Z,2.05
2022-11-05T00:28:20.525Z,1.80
2022-11-05T00:31:24.911Z,2.28
2022-11-05T00:34:29.318Z,1.98
2022-11-05T00:37:34.128Z,4.57
2022-11-05T00:44:01.897Z,1.83
2022-11-05T00:47:24.729Z,1.52
2022-11-05T00:50:29.484Z,3.00
2022-11-05T00:53:34.532Z,2.28
2022-11-05T00:56:38.847Z,3.45
2022-11-05T00:59:43.397Z,2.45
2022-11-05T01:02:48.315Z,1.70
2022-11-05T01:05:56.614Z,2.63
2022-11-05T01:09:00.982Z,1.95
2022-11-05T01:12:05.791Z,2.35
2022-11-05T01:15:10.058Z,1.63
2022-11-05T01:18:14.612Z,1.42
2022-11-05T01:21:19.475Z,2.47
2022-11-05T01:24:23.860Z,2.25
2022-11-05T01:27:28.242Z,1.75
2022-11-05T01:30:33.107Z,2.35
2022-11-05T01:33:37.669Z,1.77
2022-11-05T01:36:42.139Z,2.22
2022-11-05T01:39:46.608Z,1.83
2022-11-05T01:42:51.314Z,2.75
2022-11-05T01:45:58.365Z,2.63
2022-11-05T01:49:17.566Z,1.73
2022-11-05T01:52:24.205Z,1.92
2022-11-05T01:55:33.655Z,2.67
2022-11-05T01:58:56.681Z,3.00
2022-11-05T02:02:02.462Z,1.70
2022-11-05T02:05:07.912Z,2.88
2022-11-05T02:08:22.386Z,2.35
2022-11-05T02:11:26.984Z,2.85
2022-11-05T02:14:31.265Z,2.80
2022-11-05T02:17:51.300Z,2.95
2022-11-05T02:21:32.972Z,2.85
2022-11-05T02:24:58.913Z,2.38
2022-11-05T02:28:22.131Z,2.75
2022-11-05T02:31:42.815Z,2.88
2022-11-05T02:35:04.580Z,1.80
2022-11-05T02:38:15.130Z,2.28
2022-11-05T02:41:49.123Z,2.72
2022-11-05T02:45:20.496Z,1.98
2022-11-05T02:48:40.289Z,2.70
2022-11-05T02:52:16.028Z,2.00
2022-11-05T02:55:43.349Z,3.72
2022-11-05T02:58:48.024Z,2.85
2022-11-05T03:01:53.898Z,2.40
2022-11-05T03:04:59.325Z,2.10
2022-11-05T03:08:18.616Z,3.05
2022-11-05T03:11:26.504Z,3.15
2022-11-05T03:15:00.837Z,3.03
2022-11-05T03:18:26.811Z,2.92
2022-11-05T03:22:08.039Z,3.40
2022-11-05T03:25:17.879Z,1.55
2022-11-05T03:28:25.662Z,2.30
2022-11-05T03:31:30.903Z,1.95
2022-11-05T03:34:43.459Z,2.33
2022-11-05T03:37:51.324Z,2.78
2022-11-05T03:41:00.309Z,2.15
2022-11-05T03:44:08.368Z,2.17
2022-11-05T03:47:19.571Z,2.83
2022-11-05T03:50:41.584Z,1.75
2022-11-05T03:53:56.149Z,3.25
2022-11-05T03:57:09.634Z,3.03
2022-11-05T04:00:14.799Z,2.58
2022-11-05T04:03:19.157Z,2.60
2022-11-05T04:06:42.528Z,2.75
2022-11-05T04:10:05.413Z,2.08
2022-11-05T04:13:26.426Z,2.60
2022-11-05T04:16:56.651Z,2.67
2022-11-05T04:20:19.649Z,2.13
2022-11-05T04:23:42.470Z,3.22
2022-11-05T04:26:47.499Z,1.38
2022-11-05T04:30:10.502Z,2.55
2022-11-05T04:33:16.679Z,2.95
2022-11-05T04:36:21.107Z,3.53
2022-11-05T04:39:25.494Z,2.88
2022-11-05T04:42:29.895Z,2.38
2022-11-05T04:45:35.812Z,2.10
2022-11-05T04:48:40.472Z,2.55
2022-11-05T04:51:44.845Z,3.63
2022-11-05T04:54:49.100Z,2.83
2022-11-05T04:57:54.420Z,2.30
2022-11-05T05:00:58.778Z,2.35
2022-11-05T05:04:03.242Z,3.63
2022-11-05T05:07:07.596Z,3.33
2022-11-05T05:10:12.433Z,1.90
2022-11-05T05:13:16.582Z,2.50
2022-11-05T05:16:23.525Z,3.47
2022-11-05T05:19:27.772Z,1.90
2022-11-05T05:22:33.306Z,2.70
2022-11-05T05:25:37.800Z,1.40
2022-11-05T05:28:42.258Z,2.10
2022-11-05T05:31:46.706Z,2.42
2022-11-05T05:34:51.404Z,3.10
2022-11-05T05:37:56.636Z,1.95
2022-11-05T05:41:01.112Z,2.38
2022-11-05T05:44:06.124Z,2.67
2022-11-05T05:47:10.519Z,1.25
2022-11-05T05:50:14.925Z,1.70
2022-11-05T05:53:19.219Z,2.80
2022-11-05T05:56:23.562Z,2.42
2022-11-05T05:59:28.053Z,2.67
2022-11-05T06:02:32.386Z,2.85
2022-11-05T06:05:36.611Z,2.53
2022-11-05T06:08:41.801Z,1.83
2022-11-05T06:11:46.152Z,2.63
2022-11-05T06:14:50.781Z,1.80
2022-11-05T06:17:55.273Z,2.00
2022-11-05T06:21:11.219Z,0.98
2022-11-05T06:24:16.062Z,1.85
2022-11-05T06:27:20.583Z,1.25
2022-11-05T06:30:25.157Z,1.70
2022-11-05T06:33:29.753Z,2.65
2022-11-05T06:36:34.050Z,1.13
2022-11-05T06:39:38.572Z,1.88
2022-11-05T06:42:42.876Z,2.00
2022-11-05T06:45:47.227Z,4.95
2022-11-05T06:48:51.776Z,2.70
2022-11-05T06:51:57.577Z,1.70
2022-11-05T06:55:01.641Z,1.90
2022-11-05T06:58:06.525Z,1.25
2022-11-05T07:01:10.951Z,1.88
2022-11-05T07:04:15.388Z,3.03
2022-11-05T07:07:19.761Z,1.77
2022-11-05T07:10:24.296Z,1.83
2022-11-05T07:13:29.813Z,2.45
2022-11-05T07:16:34.221Z,2.20
2022-11-05T07:19:38.519Z,1.35
2022-11-05T07:22:42.912Z,5.40
2022-11-05T07:25:47.148Z,1.80
2022-11-05T07:28:51.543Z,2.03
2022-11-05T07:31:56.171Z,1.88
2022-11-05T07:35:00.372Z,2.10
2022-11-05T07:38:04.682Z,2.25
2022-11-05T07:41:09.192Z,1.65
2022-11-05T07:44:14.437Z,2.60
2022-11-05T07:50:25.017Z,1.45
2022-11-05T07:53:29.621Z,1.95
2022-11-05T07:56:33.889Z,1.35
2022-11-05T07:59:38.161Z,2.08
2022-11-05T08:02:43.069Z,1.60
2022-11-05T08:05:48.115Z,2.28
2022-11-05T08:08:52.349Z,1.95
2022-11-05T08:12:01.615Z,1.83
2022-11-05T08:15:07.711Z,1.70
2022-11-05T08:18:17.452Z,2.15
2022-11-05T08:21:21.847Z,1.45
2022-11-05T08:24:26.301Z,1.10
2022-11-05T08:27:30.698Z,1.20
2022-11-05T08:30:35.433Z,1.85
2022-11-05T08:33:40.276Z,1.50
2022-11-05T08:36:47.165Z,1.95
2022-11-05T08:39:51.744Z,1.52
2022-11-05T08:43:03.703Z,1.75
2022-11-05T08:46:08.500Z,1.10
2022-11-05T08:49:13.128Z,1.42
2022-11-05T08:52:17.319Z,1.55
2022-11-05T08:55:21.688Z,1.75
2022-11-05T08:58:26.388Z,1.42
2022-11-05T09:01:30.993Z,1.77
2022-11-05T09:04:35.343Z,2.13
2022-11-05T09:07:39.707Z,0.93
2022-11-05T09:10:47.217Z,2.47
2022-11-05T09:13:51.246Z,1.77
2022-11-05T09:16:55.736Z,2.72
2022-11-05T09:20:05.022Z,1.23
2022-11-05T09:23:11.379Z,2.08
2022-11-05T09:26:15.821Z,2.25
2022-11-05T09:29:20.496Z,2.35
2022-11-05T09:35:29.751Z,1.55
2022-11-05T09:38:35.488Z,1.58
2022-11-05T09:41:41.483Z,1.10
2022-11-05T09:45:17.812Z,1.70
2022-11-05T09:48:27.611Z,1.83
2022-11-05T09:51:32.509Z,2.78
2022-11-05T09:54:40.153Z,1.70
2022-11-05T09:58:01.407Z,2.22
2022-11-05T10:01:17.679Z,1.48
2022-11-05T10:04:31.007Z,2.97
2022-11-05T10:07:42.616Z,1.20
2022-11-05T10:10:46.999Z,2.00
2022-11-05T10:14:06.076Z,0.80
2022-11-05T10:17:18.356Z,1.52
2022-11-05T10:20:35.348Z,2.47
2022-11-05T10:23:39.752Z,1.23
2022-11-05T10:26:48.019Z,2.15
2022-11-05T10:29:52.237Z,1.33
2022-11-05T10:33:00.416Z,1.05
2022-11-05T10:36:09.530Z,2.15
2022-11-05T10:39:17.447Z,1.35
2022-11-05T10:42:58.567Z,2.70
2022-11-05T10:46:33.772Z,0.93
2022-11-05T10:49:59.811Z,1.40
2022-11-05T10:53:12.952Z,1.02
2022-11-05T10:56:39.187Z,1.70
2022-11-05T10:59:43.675Z,1.38
2022-11-05T11:02:55.261Z,2.47
2022-11-05T11:06:02.540Z,1.77
2022-11-05T11:09:36.385Z,1.08
2022-11-05T11:12:43.442Z,1.25
2022-11-05T11:15:50.896Z,1.20
2022-11-05T11:18:58.413Z,1.67
2022-11-05T11:22:05.863Z,1.30
2022-11-05T11:25:25.583Z,1.95
2022-11-05T11:28:33.272Z,2.33
2022-11-05T11:31:39.598Z,1.23
2022-11-05T11:34:45.846Z,1.63
2022-11-05T11:37:53.889Z,1.08
2022-11-05T11:41:20.680Z,1.05
2022-11-05T11:44:36.704Z,2.10
2022-11-05T11:47:44.310Z,1.63
2022-11-05T11:50:49.552Z,2.08
2022-11-05T11:53:58.029Z,1.45
2022-11-05T11:57:02.449Z,2.65
2022-11-05T12:00:09.868Z,1.52
2022-11-05T12:03:25.527Z,1.50
2022-11-05T12:10:06.366Z,1.30
2022-11-05T12:13:22.705Z,1.58
2022-11-05T12:16:35.169Z,1.67
2022-11-05T12:19:54.388Z,1.30
2022-11-05T12:23:24.366Z,1.52
2022-11-05T12:26:34.703Z,2.17
2022-11-05T12:30:23.620Z,2.03
2022-11-05T12:33:55.467Z,0.60
2022-11-05T12:37:21.331Z,1.13
2022-11-05T12:40:44.638Z,1.30
2022-11-05T12:44:07.117Z,1.38
2022-11-05T12:47:42.145Z,0.82
2022-11-05T12:51:02.277Z,1.25
2022-11-05T12:54:40.013Z,1.15
2022-11-05T12:57:47.557Z,0.50
2022-11-05T13:01:06.180Z,1.27
2022-11-05T13:04:34.339Z,1.23
2022-11-05T13:07:43.949Z,1.17
2022-11-05T13:10:56.625Z,0.65
2022-11-05T13:14:14.246Z,0.95
2022-11-05T13:17:22.365Z,0.68
2022-11-05T13:20:33.910Z,0.90
2022-11-05T13:23:41.776Z,1.45
2022-11-05T13:26:52.635Z,1.33
2022-11-05T13:30:06.730Z,1.05
2022-11-05T13:33:23.744Z,0.98
2022-11-05T13:36:51.524Z,0.95
2022-11-05T13:40:03.433Z,0.98
2022-11-05T13:43:52.431Z,1.13
2022-11-05T13:47:31.934Z,1.08
2022-11-05T13:51:03.705Z,0.50
2022-11-05T13:54:20.490Z,0.60
2022-11-05T13:57:46.419Z,1.20
2022-11-05T14:04:34.531Z,0.63
2022-11-05T14:07:46.208Z,1.23
2022-11-05T14:11:04.554Z,0.82
2022-11-05T14:14:19.644Z,1.20
2022-11-05T14:17:33.187Z,1.02
2022-11-05T14:20:43.089Z,1.52
2022-11-05T14:23:53.040Z,1.17
2022-11-05T14:27:00.582Z,1.45
2022-11-05T14:30:43.975Z,1.20
2022-11-05T14:34:10.415Z,0.98
2022-11-05T14:37:22.567Z,2.35
2022-11-05T14:40:44.425Z,1.52
2022-11-05T14:44:01.072Z,0.90
2022-11-05T14:47:19.484Z,1.65
2022-11-05T14:50:33.354Z,2.08
2022-11-05T14:53:40.303Z,1.00
2022-11-05T14:56:51.781Z,1.38
2022-11-05T15:03:28.485Z,2.08
2022-11-05T15:06:35.724Z,2.05
2022-11-05T15:10:07.152Z,2.22
2022-11-05T15:13:31.344Z,1.63
2022-11-05T15:16:49.339Z,2.17
2022-11-05T15:19:54.533Z,1.33
2022-11-05T15:23:00.815Z,0.80
2022-11-05T15:26:28.211Z,1.13
2022-11-05T15:29:33.548Z,2.03
2022-11-05T15:32:39.032Z,1.10
2022-11-05T15:35:43.668Z,1.02
2022-11-05T15:39:08.171Z,1.35
2022-11-05T15:42:24.214Z,1.75
2022-11-05T15:45:28.775Z,1.95
2022-11-05T15:48:34.453Z,1.15
2022-11-05T15:51:38.467Z,1.00
2022-11-05T15:54:43.411Z,1.33
2022-11-05T15:57:51.349Z,1.73
2022-11-05T16:00:55.816Z,1.60
2022-11-05T16:04:09.614Z,1.48
2022-11-05T16:07:15.155Z,1.77
2022-11-05T16:13:33.069Z,0.88
2022-11-05T16:16:37.630Z,1.65
2022-11-05T16:19:42.536Z,1.10
2022-11-05T16:22:50.175Z,1.63
2022-11-05T16:25:54.569Z,2.55
2022-11-05T16:29:01.104Z,2.03
2022-11-05T16:32:16.793Z,1.73
2022-11-05T16:35:24.168Z,2.28
2022-11-05T16:38:28.400Z,1.30
2022-11-05T16:41:36.250Z,1.77
2022-11-05T16:44:40.471Z,1.73
2022-11-05T16:47:45.600Z,1.40
2022-11-05T16:53:54.145Z,1.30
2022-11-05T16:56:59.035Z,1.35
2022-11-05T17:00:04.268Z,2.15
2022-11-05T17:03:08.534Z,1.25
2022-11-05T17:06:14.067Z,0.77
2022-11-05T17:09:18.364Z,1.92
2022-11-05T17:12:22.774Z,1.83
2022-11-05T17:15:35.277Z,2.78
2022-11-05T17:18:40.772Z,1.88
2022-11-05T17:21:45.068Z,1.45
2022-11-05T17:24:49.583Z,2.22
2022-11-05T17:27:54.162Z,1.85
2022-11-05T17:31:00.620Z,2.05
2022-11-05T17:34:04.834Z,1.33
2022-11-05T17:37:09.084Z,1.00
2022-11-05T17:40:16.635Z,0.88
2022-11-05T17:43:20.815Z,1.95
2022-11-05T17:46:25.531Z,1.35
2022-11-05T17:49:29.805Z,1.63
2022-11-05T17:52:34.388Z,1.75
2022-11-05T17:58:47.706Z,1.60
2022-11-05T18:01:52.508Z,2.40
2022-11-05T18:04:57.192Z,1.02
2022-11-05T18:08:01.508Z,1.20
2022-11-05T18:11:05.941Z,1.70
2022-11-05T18:14:10.634Z,1.23
2022-11-05T18:17:14.864Z,1.27
2022-11-05T18:20:19.795Z,1.38
2022-11-05T18:23:24.255Z,2.47
2022-11-05T18:26:28.433Z,1.08
2022-11-05T18:29:32.951Z,1.00
2022-11-05T18:32:37.425Z,1.65
2022-11-05T18:35:44.911Z,2.05
2022-11-05T18:38:49.968Z,1.77
2022-11-05T18:41:54.635Z,1.58
2022-11-05T18:44:59.121Z,1.15
2022-11-05T18:48:04.398Z,1.98
2022-11-05T18:51:10.905Z,1.55
2022-11-05T18:54:15.753Z,2.63
2022-11-05T19:00:24.558Z,1.38
2022-11-05T19:03:29.043Z,1.25
2022-11-05T19:06:34.356Z,1.17
2022-11-05T19:09:39.401Z,1.60
2022-11-05T19:12:43.831Z,2.20
2022-11-05T19:15:48.285Z,1.60
2022-11-05T19:18:52.798Z,1.50
2022-11-05T19:21:57.282Z,1.23
2022-11-05T19:25:02.025Z,1.15
2022-11-05T19:28:06.582Z,1.13
2022-11-05T19:31:17.103Z,1.77
2022-11-05T19:34:21.308Z,1.23
2022-11-05T19:37:25.727Z,0.70
2022-11-05T19:40:30.047Z,0.98
2022-11-05T19:43:35.826Z,0.95
2022-11-05T19:46:41.437Z,0.57
2022-11-05T19:52:49.788Z,1.20
2022-11-05T19:55:54.457Z,1.30
2022-11-05T19:59:00.292Z,0.85
2022-11-05T20:02:05.619Z,0.88
2022-11-05T20:05:10.286Z,0.90
2022-11-05T20:08:14.832Z,1.38
2022-11-05T20:11:19.859Z,0.98
2022-11-05T20:14:25.651Z,1.63
2022-11-05T20:17:30.841Z,1.70
2022-11-05T20:20:35.350Z,0.90
2022-11-05T20:26:44.030Z,1.38
2022-11-05T20:29:48.568Z,1.25
2022-11-05T20:32:55.078Z,1.48
2022-11-05T20:36:05.680Z,2.10
2022-11-05T20:39:10.717Z,2.17
2022-11-05T20:42:15.080Z,1.70
2022-11-05T20:45:19.530Z,1.40
2022-11-05T20:48:24.074Z,2.85
2022-11-05T20:51:28.309Z,1.63
2022-11-05T20:54:33.039Z,1.90
2022-11-05T20:57:38.497Z,1.95
2022-11-05T21:00:55.873Z,2.38
2022-11-05T21:04:00.104Z,2.80
2022-11-05T21:07:04.529Z,1.45
2022-11-05T21:10:09.010Z,2.47
2022-11-05T21:13:13.758Z,2.28
2022-11-05T21:19:24.038Z,3.03
2022-11-05T21:22:28.410Z,2.25
2022-11-05T21:25:32.989Z,2.97
2022-11-05T21:28:39.320Z,2.53
2022-11-05T21:31:44.293Z,2.58
2022-11-05T21:34:48.561Z,3.08
2022-11-05T21:37:53.152Z,3.20
2022-11-05T21:41:01.370Z,2.17
2022-11-05T21:44:05.944Z,2.78
2022-11-05T21:47:10.164Z,4.63
2022-11-05T21:50:17.102Z,3.20
2022-11-05T21:53:44.312Z,3.38
2022-11-05T21:57:10.694Z,3.05
2022-11-05T22:00:15.181Z,2.92
2022-11-05T22:03:19.462Z,3.17
2022-11-05T22:06:24.050Z,2.70
2022-11-05T22:09:28.524Z,2.83
2022-11-05T22:12:32.930Z,2.35
2022-11-05T22:15:37.211Z,3.58
2022-11-05T22:18:41.595Z,3.30
2022-11-05T22:21:46.575Z,3.38
2022-11-05T22:24:51.757Z,3.60
2022-11-05T22:27:56.478Z,3.53
2022-11-05T22:31:00.743Z,2.97
2022-11-05T22:34:06.607Z,2.80
2022-11-05T22:37:13.915Z,3.60
2022-11-05T22:40:23.322Z,3.35
2022-11-05T22:43:28.417Z,4.50
2022-11-05T22:46:32.781Z,4.28
2022-11-05T22:49:37.332Z,3.90
2022-11-05T22:52:41.843Z,4.75
2022-11-05T22:55:46.351Z,5.47
2022-11-05T22:58:51.192Z,3.90
2022-11-05T23:01:55.436Z,4.25
2022-11-05T23:04:59.949Z,4.32
2022-11-05T23:08:22.955Z,3.85
2022-11-05T23:11:38.403Z,3.45
2022-11-05T23:18:05.328Z,3.55
2022-11-05T23:21:28.289Z,4.47
2022-11-05T23:24:32.729Z,4.10
2022-11-05T23:27:38.973Z,4.13
2022-11-05T23:31:04.200Z,4.88
2022-11-05T23:37:32.161Z,4.88
2022-11-05T23:40:56.663Z,6.30
2022-11-05T23:44:19.736Z,5.50
2022-11-05T23:47:42.797Z,6.18
2022-11-05T23:51:00.698Z,5.28
2022-11-05T23:54:05.027Z,6.05
2022-11-05T23:57:09.088Z,8.13
